createdAt,value
2022-10-11T00:00:53.533Z,13.09
2022-10-11T00:03:22.006Z,12.92
2022-10-11T00:05:49.948Z,12.66
2022-10-11T00:08:18.475Z,12.79
2022-10-11T00:10:57.783Z,12.76
2022-10-11T00:13:25.777Z,12.75
2022-10-11T00:15:53.713Z,12.71
2022-10-11T00:18:21.764Z,12.55
2022-10-11T00:20:50.401Z,12.53
2022-10-11T00:23:18.760Z,12.57
2022-10-11T00:25:57.961Z,12.68
2022-10-11T00:28:26.010Z,12.61
2022-10-11T00:30:54.114Z,12.42
2022-10-11T00:33:22.060Z,12.30
2022-10-11T00:35:50.080Z,12.43
2022-10-11T00:38:18.666Z,12.55
2022-10-11T00:40:47.929Z,12.34
2022-10-11T00:43:17.842Z,12.39
2022-10-11T00:46:01.795Z,12.39
2022-10-11T00:48:37.525Z,12.55
2022-10-11T00:51:11.400Z,12.58
2022-10-11T00:53:39.571Z,12.56
2022-10-11T00:56:15.732Z,12.62
2022-10-11T00:58:44.193Z,12.60
2022-10-11T01:01:12.363Z,12.37
2022-10-11T01:03:41.847Z,12.14
2022-10-11T01:06:10.277Z,12.35
2022-10-11T01:08:39.555Z,12.54
2022-10-11T01:11:13.412Z,12.59
2022-10-11T01:13:53.838Z,12.67
2022-10-11T01:16:30.064Z,12.65
2022-10-11T01:19:22.562Z,12.76
2022-10-11T01:21:58.818Z,12.69
2022-10-11T01:24:52.128Z,12.56
2022-10-11T01:27:45.463Z,12.69
2022-10-11T01:30:36.325Z,12.49
2022-10-11T01:33:25.906Z,12.44
2022-10-11T01:36:05.158Z,12.58
2022-10-11T01:38:38.963Z,12.73
2022-10-11T01:41:11.299Z,12.74
2022-10-11T01:43:42.081Z,12.72
2022-10-11T01:46:12.214Z,12.77
2022-10-11T01:48:59.052Z,12.67
2022-10-11T01:51:32.316Z,12.67
2022-10-11T01:54:22.762Z,12.57
2022-10-11T01:57:09.402Z,12.38
2022-10-11T01:59:49.226Z,12.40
2022-10-11T02:02:32.096Z,12.45
2022-10-11T02:05:07.210Z,12.59
2022-10-11T02:07:41.940Z,12.58
2022-10-11T02:10:16.683Z,12.48
2022-10-11T02:12:48.897Z,12.45
2022-10-11T02:15:19.509Z,12.51
2022-10-11T02:17:53.849Z,12.62
2022-10-11T02:20:26.025Z,12.63
2022-10-11T02:23:00.385Z,12.41
2022-10-11T02:25:31.777Z,12.36
2022-10-11T02:28:03.661Z,12.30
2022-10-11T02:30:32.297Z,11.97
2022-10-11T02:33:05.129Z,12.23
2022-10-11T02:35:38.281Z,12.28
2022-10-11T02:38:14.744Z,12.20
2022-10-11T02:40:47.921Z,12.01
2022-10-11T02:43:24.042Z,11.88
2022-10-11T02:45:55.979Z,11.78
2022-10-11T02:48:27.590Z,11.85
2022-10-11T02:50:56.781Z,11.90
2022-10-11T02:53:26.245Z,12.07
2022-10-11T02:55:55.957Z,12.19
2022-10-11T02:58:25.442Z,12.21
2022-10-11T03:00:53.630Z,12.31
2022-10-11T03:03:21.916Z,12.34
2022-10-11T03:05:51.201Z,12.28
2022-10-11T03:08:19.246Z,12.33
2022-10-11T03:10:47.230Z,12.27
2022-10-11T03:13:18.243Z,12.27
2022-10-11T03:16:00.725Z,12.14
2022-10-11T03:18:30.911Z,12.25
2022-10-11T03:21:00.218Z,12.21
2022-10-11T03:23:28.177Z,12.18
2022-10-11T03:25:56.088Z,12.08
2022-10-11T03:28:24.023Z,12.08
2022-10-11T03:30:52.554Z,12.07
2022-10-11T03:33:20.995Z,12.02
2022-10-11T03:35:50.145Z,11.99
2022-10-11T03:38:22.138Z,11.97
2022-10-11T03:40:50.172Z,12.00
2022-10-11T03:43:18.410Z,12.00
2022-10-11T03:45:46.373Z,12.00
2022-10-11T03:48:14.408Z,11.79
2022-10-11T03:50:42.338Z,11.97
2022-10-11T03:53:10.463Z,12.06
2022-10-11T03:55:41.505Z,12.21
2022-10-11T03:58:09.842Z,12.28
2022-10-11T04:00:38.625Z,12.27
2022-10-11T04:03:06.635Z,12.34
2022-10-11T04:05:34.553Z,12.29
2022-10-11T04:08:02.491Z,12.32
2022-10-11T04:10:31.575Z,12.31
2022-10-11T04:13:01.033Z,12.22
2022-10-11T04:15:28.965Z,11.82
2022-10-11T04:17:56.884Z,11.96
2022-10-11T04:20:24.982Z,12.14
2022-10-11T04:22:52.881Z,12.19
2022-10-11T04:25:20.798Z,12.22
2022-10-11T04:27:48.743Z,12.27
2022-10-11T04:30:18.309Z,12.30
2022-10-11T04:32:46.272Z,12.32
2022-10-11T04:35:14.447Z,12.33
2022-10-11T04:37:42.371Z,12.36
2022-10-11T04:40:11.620Z,12.27
2022-10-11T04:42:39.555Z,12.35
2022-10-11T04:45:09.490Z,12.41
2022-10-11T04:47:40.521Z,12.44
2022-10-11T04:50:08.867Z,12.36
2022-10-11T04:52:36.833Z,12.41
2022-10-11T04:55:05.143Z,12.35
2022-10-11T04:57:33.063Z,12.32
2022-10-11T05:00:00.993Z,12.34
2022-10-11T05:02:28.993Z,12.34
2022-10-11T05:04:58.597Z,12.37
2022-10-11T05:07:26.519Z,12.45
2022-10-11T05:09:54.702Z,12.53
2022-10-11T05:12:22.666Z,12.51
2022-10-11T05:14:50.612Z,12.61
2022-10-11T05:17:18.670Z,12.66
2022-10-11T05:19:46.608Z,12.70
2022-10-11T05:22:15.902Z,12.78
2022-10-11T05:24:44.036Z,12.73
2022-10-11T05:27:11.941Z,12.65
2022-10-11T05:29:39.878Z,12.62
2022-10-11T05:32:07.895Z,12.51
2022-10-11T05:34:35.818Z,12.52
2022-10-11T13:10:34.210Z,19.45
2022-10-11T13:13:04.666Z,19.50
2022-10-11T13:15:33.213Z,19.58
2022-10-11T13:18:01.949Z,19.55
2022-10-11T13:20:32.406Z,19.52
2022-10-11T13:23:00.686Z,19.35
2022-10-11T13:25:37.936Z,19.39
2022-10-11T13:28:10.292Z,19.34
2022-10-11T13:30:40.141Z,19.30
2022-10-11T13:33:14.954Z,19.27
2022-10-11T13:35:43.122Z,19.37
2022-10-11T13:38:22.591Z,19.55
2022-10-11T13:40:52.455Z,19.63
2022-10-11T13:43:24.780Z,19.63
2022-10-11T13:45:54.024Z,19.52
2022-10-11T13:48:22.669Z,19.42
2022-10-11T13:51:09.366Z,19.41
2022-10-11T13:53:37.439Z,19.29
2022-10-11T13:56:09.754Z,19.26
2022-10-11T13:58:40.750Z,19.31
2022-10-11T14:01:20.196Z,19.48
2022-10-11T14:03:53.344Z,19.57
2022-10-11T14:06:21.645Z,19.46
2022-10-11T14:08:53.187Z,19.52
2022-10-11T14:11:36.256Z,19.61
2022-10-11T14:14:37.370Z,19.65
2022-10-11T14:17:07.502Z,19.61
2022-10-11T14:19:35.783Z,19.49
2022-10-11T14:22:07.486Z,19.61
2022-10-11T14:24:35.695Z,19.65
2022-10-11T14:27:07.482Z,19.59
2022-10-11T14:29:39.206Z,19.56
2022-10-11T14:32:09.810Z,19.56
2022-10-11T14:34:38.481Z,19.48
2022-10-11T14:37:06.867Z,19.50
2022-10-11T14:39:35.189Z,19.41
2022-10-11T14:42:05.428Z,19.39
2022-10-11T14:44:33.476Z,19.39
2022-10-11T14:47:02.708Z,19.34
2022-10-11T14:49:31.913Z,19.05
2022-10-11T14:52:00.665Z,19.26
2022-10-11T14:54:30.502Z,19.29
2022-10-11T14:57:01.015Z,19.26
2022-10-11T14:59:34.973Z,19.20
2022-10-11T15:02:03.465Z,19.08
2022-10-11T15:04:31.520Z,19.19
2022-10-11T15:06:59.701Z,19.15
2022-10-11T15:09:27.960Z,19.16
2022-10-11T15:11:56.401Z,19.09
2022-10-11T15:14:25.342Z,19.06
2022-10-11T15:16:56.313Z,19.05
2022-10-11T15:19:26.671Z,19.06
2022-10-11T15:21:54.781Z,19.02
2022-10-11T15:24:23.206Z,18.92
2022-10-11T15:26:51.495Z,18.91
2022-10-11T15:29:22.061Z,18.87
2022-10-11T15:31:51.144Z,18.83
2022-10-11T15:34:20.666Z,18.77
2022-10-11T15:36:50.097Z,18.63
2022-10-11T15:39:26.353Z,18.56
2022-10-11T15:41:55.165Z,18.57
2022-10-11T15:44:23.443Z,18.51
2022-10-11T15:46:51.647Z,18.52
2022-10-11T15:49:21.149Z,18.48
2022-10-11T15:51:49.211Z,18.44
2022-10-11T15:54:17.276Z,18.35
2022-10-11T15:56:45.567Z,18.32
2022-10-11T15:59:13.938Z,18.24
2022-10-11T16:01:42.173Z,18.26
2022-10-11T16:04:11.207Z,18.20
2022-10-11T16:06:41.192Z,18.19
2022-10-11T16:09:09.229Z,18.16
2022-10-11T16:11:37.300Z,18.12
2022-10-11T16:14:06.168Z,18.09
2022-10-11T16:16:34.242Z,18.04
2022-10-11T16:19:02.290Z,18.02
2022-10-11T16:21:30.334Z,17.99
2022-10-11T16:23:59.826Z,17.92
2022-10-11T16:26:28.226Z,17.88
2022-10-11T16:28:57.028Z,17.81
2022-10-11T16:31:25.301Z,17.79
2022-10-11T16:33:54.194Z,17.75
2022-10-11T16:36:48.890Z,17.73
2022-10-11T16:39:20.370Z,17.64
2022-10-11T16:41:49.657Z,17.66
2022-10-11T16:44:19.781Z,17.64
2022-10-11T16:46:50.176Z,17.59
2022-10-11T16:49:20.834Z,17.57
2022-10-11T16:51:49.533Z,17.55
2022-10-11T16:54:20.750Z,17.53
2022-10-11T16:56:49.613Z,17.49
2022-10-11T16:59:19.142Z,17.46
2022-10-11T17:01:47.841Z,17.40
2022-10-11T17:04:17.014Z,17.33
2022-10-11T17:06:45.667Z,17.33
2022-10-11T17:09:14.808Z,17.31
2022-10-11T17:11:44.978Z,17.30
2022-10-11T17:14:14.085Z,17.30
2022-10-11T17:16:42.530Z,17.26
2022-10-11T17:19:12.958Z,17.27
2022-10-11T17:21:42.120Z,17.20
2022-10-11T17:24:10.384Z,17.20
2022-10-11T17:26:38.601Z,17.15
2022-10-11T17:29:08.327Z,17.14
2022-10-11T17:31:38.579Z,17.09
2022-10-11T17:34:06.665Z,17.07
2022-10-11T17:36:35.665Z,17.07
2022-10-11T17:39:07.820Z,17.03
2022-10-11T17:41:36.173Z,17.02
2022-10-11T17:44:04.856Z,16.97
2022-10-11T17:46:34.421Z,16.99
2022-10-11T17:49:04.911Z,16.96
2022-10-11T17:51:33.851Z,16.92
2022-10-11T17:54:02.113Z,16.90
2022-10-11T17:56:36.609Z,16.89
2022-10-11T17:59:05.957Z,16.87
2022-10-11T18:01:36.076Z,16.73
2022-10-11T18:04:06.180Z,16.83
2022-10-11T18:06:39.957Z,16.82
2022-10-11T18:09:08.893Z,16.81
2022-10-11T18:11:37.054Z,16.77
2022-10-11T18:14:05.757Z,16.76
2022-10-11T18:16:36.544Z,16.70
2022-10-11T18:19:06.585Z,16.74
2022-10-11T18:21:35.265Z,16.72
2022-10-11T18:24:05.080Z,16.68
2022-10-11T18:26:33.477Z,16.64
2022-10-11T18:29:02.174Z,16.66
2022-10-11T18:31:34.017Z,16.66
2022-10-11T18:34:04.526Z,16.64
2022-10-11T18:36:33.426Z,16.63
2022-10-11T18:39:03.214Z,16.55
2022-10-11T18:41:33.157Z,16.48
2022-10-11T18:44:03.211Z,16.46
2022-10-11T18:46:31.770Z,16.42
2022-10-11T18:49:01.893Z,16.37
2022-10-11T18:51:33.883Z,16.26
2022-10-11T18:54:03.102Z,16.37
2022-10-11T18:56:33.259Z,16.36
2022-10-11T18:59:01.710Z,16.41
2022-10-11T19:01:31.831Z,16.45
2022-10-11T19:04:01.577Z,16.42
2022-10-11T19:06:34.271Z,16.46
2022-10-11T19:09:05.418Z,16.47
2022-10-11T19:11:33.991Z,16.44
2022-10-11T19:14:06.509Z,16.45
2022-10-11T19:16:37.690Z,16.39
2022-10-11T19:19:06.761Z,16.37
2022-10-11T19:21:36.638Z,16.35
2022-10-11T19:24:05.324Z,16.29
2022-10-11T19:26:35.521Z,16.22
2022-10-11T19:29:06.174Z,16.19
2022-10-11T19:31:36.611Z,16.17
2022-10-11T19:34:04.903Z,16.10
2022-10-11T19:36:36.633Z,16.12
2022-10-11T19:39:07.554Z,16.15
2022-10-11T19:41:35.648Z,16.12
2022-10-11T19:44:03.713Z,16.14
2022-10-11T19:46:50.435Z,16.12
2022-10-11T19:49:22.767Z,16.09
2022-10-11T19:51:51.328Z,16.08
2022-10-11T19:54:20.741Z,16.13
2022-10-11T19:56:49.098Z,16.14
2022-10-11T19:59:17.432Z,16.15
2022-10-11T20:01:51.028Z,16.11
2022-10-11T20:04:50.631Z,16.08
2022-10-11T20:07:08.213Z,16.08
2022-10-11T20:09:38.032Z,16.13
2022-10-11T20:12:06.459Z,16.18
2022-10-11T20:14:34.399Z,16.22
2022-10-11T20:17:02.403Z,16.26
2022-10-11T20:19:31.634Z,16.25
2022-10-11T20:22:00.471Z,16.24
2022-10-11T20:24:32.955Z,16.23
2022-10-11T20:27:04.121Z,16.24
2022-10-11T20:29:32.275Z,16.21
2022-10-11T20:32:00.333Z,16.10
2022-10-11T20:34:28.929Z,16.20
2022-10-11T20:36:56.969Z,16.17
2022-10-11T20:39:25.526Z,16.14
2022-10-11T20:41:53.606Z,16.11
2022-10-11T20:44:23.188Z,16.10
2022-10-11T20:46:51.381Z,16.16
2022-10-11T20:49:20.864Z,16.16
2022-10-11T20:51:48.976Z,16.18
2022-10-11T20:54:17.293Z,16.20
2022-10-11T20:56:45.413Z,16.15
2022-10-11T20:59:13.427Z,16.16
2022-10-11T21:01:43.194Z,16.20
2022-10-11T21:04:17.881Z,16.21
2022-10-11T21:06:45.834Z,16.22
2022-10-11T21:09:16.412Z,16.19
2022-10-11T21:11:45.000Z,16.22
2022-10-11T21:14:13.102Z,16.20
2022-10-11T21:16:42.882Z,16.07
2022-10-11T21:19:14.803Z,16.15
2022-10-11T21:21:43.253Z,16.19
2022-10-11T21:24:11.394Z,16.16
2022-10-11T21:26:39.427Z,16.11
2022-10-11T21:29:08.607Z,15.98
2022-10-11T21:31:36.718Z,15.98
2022-10-11T21:34:07.516Z,15.81
2022-10-11T21:36:35.950Z,15.76
2022-10-11T21:39:04.450Z,15.76
2022-10-11T21:41:34.122Z,15.73
2022-10-11T21:44:02.669Z,15.55
2022-10-11T21:49:22.195Z,15.66
2022-10-11T21:51:50.296Z,15.69
2022-10-11T21:54:18.701Z,15.71
2022-10-11T21:56:46.770Z,15.75
2022-10-11T21:59:15.302Z,15.82
2022-10-11T22:01:44.205Z,15.86
2022-10-11T22:04:13.082Z,15.90
2022-10-11T22:06:42.441Z,15.91
2022-10-11T22:09:10.764Z,15.85
2022-10-11T22:11:39.232Z,15.87
2022-10-11T22:14:07.902Z,15.84
2022-10-11T22:16:36.352Z,15.78
2022-10-11T22:19:05.078Z,15.80
2022-10-11T22:21:33.247Z,15.83
2022-10-11T22:24:03.058Z,15.83
2022-10-11T22:26:32.094Z,15.86
2022-10-11T22:29:00.699Z,15.88
2022-10-11T22:31:29.818Z,15.88
2022-10-11T22:33:59.447Z,15.88
2022-10-11T22:36:27.946Z,15.91
2022-10-11T22:38:56.046Z,15.93
2022-10-11T22:41:25.578Z,15.93
2022-10-11T22:43:53.672Z,15.98
2022-10-11T22:46:21.715Z,15.99
2022-10-11T22:48:49.805Z,15.97
2022-10-11T22:51:18.017Z,15.95
2022-10-11T22:53:45.970Z,15.92
2022-10-11T22:56:14.205Z,15.93
2022-10-11T22:58:43.499Z,15.92
2022-10-11T23:01:13.897Z,15.91
2022-10-11T23:03:42.263Z,15.90
2022-10-11T23:06:10.747Z,15.86
2022-10-11T23:08:39.082Z,15.90
2022-10-11T23:11:08.266Z,15.85
2022-10-11T23:13:36.549Z,15.86
2022-10-11T23:16:09.925Z,15.89
2022-10-11T23:18:38.778Z,15.86
2022-10-11T23:21:07.705Z,15.90
2022-10-11T23:23:35.855Z,15.85
2022-10-11T23:26:05.602Z,15.82
2022-10-11T23:28:34.009Z,15.71
2022-10-11T23:31:02.313Z,15.70
2022-10-11T23:33:32.223Z,15.72
2022-10-11T23:36:00.205Z,15.68
2022-10-11T23:38:28.265Z,15.56
2022-10-11T23:40:56.277Z,15.62
2022-10-11T23:43:24.503Z,15.62
2022-10-11T23:45:54.211Z,15.60
2022-10-11T23:48:22.273Z,15.49
2022-10-11T23:50:51.815Z,15.47
2022-10-11T23:53:19.882Z,15.33
2022-10-11T23:55:47.946Z,15.42
2022-10-11T23:58:16.055Z,15.45
